createdAt,value
2019-05-19T00:01:55.431Z,63.27
2019-05-19T00:04:26.916Z,63.78
2019-05-19T00:06:58.988Z,63.63
2019-05-19T00:09:30.795Z,63.46
2019-05-19T00:12:03.191Z,64.76
2019-05-19T00:14:34.606Z,64.26
2019-05-19T00:17:05.992Z,64.08
2019-05-19T00:19:38.593Z,65.45
2019-05-19T00:22:10.283Z,65.33
2019-05-19T00:24:41.764Z,64.82
2019-05-19T00:27:13.465Z,64.69
2019-05-19T00:29:45.510Z,65.05
2019-05-19T00:32:17.412Z,65.21
2019-05-19T00:34:49.167Z,64.81
2019-05-19T00:37:21.010Z,64.41
2019-05-19T00:39:52.813Z,64.58
2019-05-19T00:42:24.355Z,64.44
2019-05-19T00:44:56.229Z,64.93
2019-05-19T00:47:27.829Z,64.61
2019-05-19T00:49:59.744Z,65.31
2019-05-19T00:52:31.468Z,65.72
2019-05-19T00:55:03.073Z,65.41
2019-05-19T00:57:35.266Z,66.00
2019-05-19T01:00:08.070Z,66.01
2019-05-19T01:02:40.033Z,65.94
2019-05-19T01:05:13.900Z,67.15
2019-05-19T01:07:45.181Z,66.51
2019-05-19T01:10:17.096Z,66.27
2019-05-19T01:12:48.688Z,66.04
2019-05-19T01:15:21.886Z,66.54
2019-05-19T01:17:54.557Z,67.13
2019-05-19T01:20:26.554Z,66.91
2019-05-19T01:22:58.351Z,66.84
2019-05-19T01:25:30.346Z,66.97
2019-05-19T01:28:02.228Z,66.92
2019-05-19T01:30:33.911Z,66.97
2019-05-19T01:33:05.864Z,67.08
2019-05-19T01:35:37.313Z,67.43
2019-05-19T01:38:09.087Z,67.48
2019-05-19T01:40:40.597Z,67.61
2019-05-19T01:43:12.156Z,67.46
2019-05-19T01:45:43.914Z,67.47
2019-05-19T01:48:15.730Z,67.42
2019-05-19T01:50:47.418Z,67.38
2019-05-19T01:53:19.291Z,67.20
2019-05-19T01:55:50.885Z,67.35
2019-05-19T01:58:22.556Z,67.38
2019-05-19T02:00:54.501Z,67.56
2019-05-19T02:03:26.061Z,67.91
2019-05-19T02:05:57.803Z,69.30
2019-05-19T02:08:29.484Z,70.30
2019-05-19T02:11:01.158Z,71.11
2019-05-19T02:13:32.804Z,72.02
2019-05-19T02:16:04.507Z,72.16
2019-05-19T02:18:36.367Z,71.82
2019-05-19T02:21:08.158Z,71.70
2019-05-19T02:23:39.750Z,71.03
2019-05-19T02:26:11.354Z,71.60
2019-05-19T02:28:42.989Z,72.29
2019-05-19T02:31:14.417Z,73.50
2019-05-19T02:33:46.162Z,74.65
2019-05-19T02:36:17.758Z,73.91
2019-05-19T02:38:49.659Z,73.88
2019-05-19T02:41:23.406Z,73.50
2019-05-19T02:43:56.830Z,73.17
2019-05-19T02:46:30.165Z,73.30
2019-05-19T02:49:03.354Z,72.56
2019-05-19T02:51:34.765Z,72.41
2019-05-19T02:54:07.542Z,72.30
2019-05-19T02:56:39.715Z,72.27
2019-05-19T02:59:11.921Z,72.32
2019-05-19T03:02:04.164Z,72.38
2019-05-19T03:04:35.607Z,71.68
2019-05-19T03:07:06.931Z,71.67
2019-05-19T03:09:39.238Z,72.36
2019-05-19T03:12:10.908Z,72.33
2019-05-19T03:14:42.596Z,72.17
2019-05-19T03:17:14.466Z,71.65
2019-05-19T03:19:46.216Z,71.82
2019-05-19T03:22:17.972Z,71.57
2019-05-19T03:24:49.529Z,71.75
2019-05-19T03:27:21.125Z,71.22
2019-05-19T03:29:56.984Z,71.27
2019-05-19T03:32:43.853Z,71.25
2019-05-19T03:35:15.725Z,72.14
2019-05-19T03:37:47.493Z,72.01
2019-05-19T03:40:22.193Z,71.67
2019-05-19T03:42:54.312Z,71.67
2019-05-19T03:45:26.146Z,71.18
2019-05-19T03:47:57.964Z,71.29
2019-05-19T03:50:29.499Z,71.01
2019-05-19T03:53:03.522Z,70.66
2019-05-19T03:55:35.390Z,70.46
2019-05-19T03:58:06.870Z,70.38
2019-05-19T04:00:38.508Z,69.84
2019-05-19T04:03:10.558Z,69.93
2019-05-19T04:05:42.324Z,69.77
2019-05-19T04:08:13.703Z,68.51
2019-05-19T04:10:45.448Z,68.41
2019-05-19T04:13:17.275Z,68.56
2019-05-19T04:15:49.018Z,68.54
2019-05-19T04:18:20.745Z,68.99
2019-05-19T04:20:52.477Z,68.81
2019-05-19T04:23:24.101Z,68.67
2019-05-19T04:25:55.674Z,68.29
2019-05-19T04:28:27.661Z,68.09
2019-05-19T04:30:59.372Z,67.98
2019-05-19T04:33:30.987Z,67.60
2019-05-19T04:36:02.535Z,67.47
2019-05-19T04:38:34.453Z,67.64
2019-05-19T04:41:05.905Z,66.63
2019-05-19T04:43:37.525Z,67.25
2019-05-19T04:46:09.092Z,66.62
2019-05-19T04:48:40.782Z,66.56
2019-05-19T04:51:12.542Z,65.83
2019-05-19T04:53:44.046Z,66.09
2019-05-19T04:56:19.517Z,66.56
2019-05-19T04:58:49.185Z,66.58
2019-05-19T05:01:20.750Z,66.42
2019-05-19T05:03:52.569Z,65.91
2019-05-19T05:06:24.365Z,64.60
2019-05-19T05:08:56.248Z,64.27
2019-05-19T05:11:28.093Z,64.86
2019-05-19T05:14:00.243Z,64.34
2019-05-19T05:16:31.964Z,62.95
2019-05-19T05:19:03.867Z,61.50
2019-05-19T05:21:35.829Z,61.65
2019-05-19T05:24:07.646Z,62.17
2019-05-19T05:26:39.317Z,62.93
2019-05-19T05:29:11.936Z,61.99
2019-05-19T05:31:43.961Z,61.75
2019-05-19T05:34:15.878Z,60.62
2019-05-19T05:36:48.125Z,59.95
2019-05-19T05:39:20.161Z,60.64
2019-05-19T05:41:51.779Z,60.19
2019-05-19T05:44:23.515Z,59.60
2019-05-19T05:46:55.071Z,59.06
2019-05-19T05:49:26.519Z,58.64
2019-05-19T05:51:58.044Z,58.28
2019-05-19T05:54:29.774Z,59.74
2019-05-19T05:57:01.364Z,58.47
2019-05-19T05:59:33.198Z,58.85
2019-05-19T06:02:04.823Z,59.18
2019-05-19T06:04:37.656Z,59.00
2019-05-19T06:07:09.294Z,59.69
2019-05-19T06:09:41.183Z,59.80
2019-05-19T06:12:12.802Z,60.35
2019-05-19T06:14:44.395Z,60.69
2019-05-19T06:17:16.140Z,60.31
2019-05-19T06:19:47.904Z,59.89
2019-05-19T06:22:19.506Z,59.89
2019-05-19T06:24:51.762Z,60.91
2019-05-19T06:27:23.323Z,60.46
2019-05-19T06:29:55.189Z,60.92
2019-05-19T06:32:35.832Z,61.18
2019-05-19T06:35:08.478Z,60.96
2019-05-19T06:37:40.137Z,62.05
2019-05-19T06:40:11.961Z,61.59
2019-05-19T06:42:43.844Z,60.93
2019-05-19T06:45:17.157Z,60.02
2019-05-19T06:47:49.150Z,58.05
2019-05-19T06:50:21.003Z,57.88
2019-05-19T06:52:52.751Z,57.39
2019-05-19T06:55:24.546Z,56.79
2019-05-19T06:57:57.179Z,58.91
2019-05-19T07:00:28.746Z,58.21
2019-05-19T07:03:00.536Z,56.17
2019-05-19T07:05:32.481Z,54.20
2019-05-19T07:08:04.126Z,54.40
2019-05-19T07:10:36.001Z,53.43
2019-05-19T07:13:07.902Z,53.78
2019-05-19T07:15:39.477Z,53.46
2019-05-19T07:18:12.312Z,52.63
2019-05-19T07:20:44.919Z,52.63
2019-05-19T07:23:27.916Z,53.36
2019-05-19T07:25:50.748Z,52.02
2019-05-19T07:28:22.634Z,53.35
2019-05-19T07:30:54.483Z,51.71
2019-05-19T07:33:26.161Z,49.26
2019-05-19T07:35:57.832Z,49.74
2019-05-19T07:38:29.592Z,49.25
2019-05-19T07:41:01.344Z,49.29
2019-05-19T07:43:34.152Z,48.64
2019-05-19T07:46:06.260Z,48.94
2019-05-19T07:48:38.439Z,48.85
2019-05-19T07:51:10.136Z,50.99
2019-05-19T07:53:43.254Z,47.83
2019-05-19T07:56:15.242Z,48.73
2019-05-19T07:58:46.604Z,48.95
2019-05-19T08:01:18.304Z,48.62
2019-05-19T08:03:49.987Z,47.77
2019-05-19T08:06:21.923Z,48.45
2019-05-19T08:08:53.413Z,47.78
2019-05-19T08:11:25.656Z,47.34
2019-05-19T08:13:57.644Z,47.50
2019-05-19T08:16:29.516Z,47.89
2019-05-19T08:19:01.276Z,49.11
2019-05-19T08:21:33.944Z,48.65
2019-05-19T08:24:05.449Z,45.43
2019-05-19T08:26:37.206Z,45.62
2019-05-19T08:29:10.359Z,46.48
2019-05-19T08:31:42.099Z,46.65
2019-05-19T08:34:13.701Z,47.04
2019-05-19T08:36:45.573Z,46.51
2019-05-19T08:39:18.449Z,45.44
2019-05-19T08:41:51.085Z,44.97
2019-05-19T08:44:22.860Z,46.02
2019-05-19T08:46:54.529Z,45.20
2019-05-19T08:49:26.237Z,46.06
2019-05-19T08:51:57.872Z,47.23
2019-05-19T08:54:29.521Z,48.48
2019-05-19T08:57:01.283Z,45.33
2019-05-19T08:59:33.176Z,47.17
2019-05-19T09:02:04.894Z,45.86
2019-05-19T09:04:36.395Z,46.83
2019-05-19T09:07:08.329Z,46.47
2019-05-19T09:09:39.935Z,46.30
2019-05-19T09:12:11.630Z,46.43
2019-05-19T09:14:43.284Z,45.78
2019-05-19T09:17:15.232Z,43.57
2019-05-19T09:19:46.866Z,43.92
2019-05-19T09:22:18.807Z,43.92
2019-05-19T09:24:50.358Z,44.39
2019-05-19T09:27:21.944Z,45.12
2019-05-19T09:29:53.795Z,44.55
2019-05-19T09:32:26.249Z,43.41
2019-05-19T09:34:57.883Z,44.83
2019-05-19T09:37:29.655Z,43.49
2019-05-19T09:40:01.369Z,44.21
2019-05-19T09:42:34.376Z,44.02
2019-05-19T09:45:06.596Z,45.61
2019-05-19T09:47:38.465Z,43.50
2019-05-19T09:50:10.228Z,42.86
2019-05-19T09:52:42.008Z,44.21
2019-05-19T09:55:13.837Z,45.17
2019-05-19T09:57:45.542Z,41.13
2019-05-19T10:00:18.958Z,41.84
2019-05-19T10:02:50.766Z,41.86
2019-05-19T10:05:22.926Z,42.83
2019-05-19T10:07:54.623Z,41.77
2019-05-19T10:11:00.509Z,42.80
2019-05-19T10:13:32.467Z,42.65
2019-05-19T10:16:04.441Z,42.07
2019-05-19T10:18:36.486Z,41.76
2019-05-19T10:21:07.976Z,40.70
2019-05-19T10:23:40.220Z,40.78
2019-05-19T10:26:11.817Z,40.06
2019-05-19T10:28:43.382Z,40.37
2019-05-19T10:31:15.261Z,42.39
2019-05-19T10:33:46.987Z,39.96
2019-05-19T10:36:19.138Z,40.48
2019-05-19T10:38:50.779Z,40.23
2019-05-19T10:41:22.352Z,39.10
2019-05-19T10:44:01.297Z,41.29
2019-05-19T10:46:32.873Z,41.63
2019-05-19T10:49:04.524Z,41.83
2019-05-19T10:51:37.416Z,43.05
2019-05-19T10:54:09.081Z,40.60
2019-05-19T10:56:41.974Z,40.81
2019-05-19T10:59:14.176Z,41.26
2019-05-19T11:01:46.088Z,42.15
2019-05-19T11:04:17.804Z,38.55
2019-05-19T11:06:49.286Z,39.21
2019-05-19T11:09:20.839Z,39.12
2019-05-19T11:11:52.830Z,39.12
2019-05-19T11:14:24.783Z,37.51
2019-05-19T11:16:56.457Z,37.96
2019-05-19T11:19:28.124Z,37.89
2019-05-19T11:22:00.984Z,36.85
2019-05-19T11:24:32.954Z,35.21
2019-05-19T11:27:04.753Z,36.62
2019-05-19T11:29:36.635Z,36.62
2019-05-19T11:32:08.661Z,36.81
2019-05-19T11:34:40.588Z,38.47
2019-05-19T11:37:13.165Z,36.74
2019-05-19T11:39:45.036Z,36.35
2019-05-19T11:42:16.750Z,37.51
2019-05-19T11:44:48.544Z,37.56
2019-05-19T11:47:20.326Z,36.94
2019-05-19T11:49:52.045Z,37.12
2019-05-19T11:52:23.855Z,37.99
2019-05-19T11:54:55.569Z,36.70
2019-05-19T11:57:27.667Z,36.70
2019-05-19T11:59:59.300Z,36.15
2019-05-19T12:02:30.909Z,38.65
2019-05-19T12:05:02.541Z,37.57
2019-05-19T12:07:34.479Z,37.17
2019-05-19T12:10:06.084Z,36.41
2019-05-19T12:12:38.221Z,38.02
2019-05-19T12:15:10.712Z,37.65
2019-05-19T12:17:42.587Z,36.48
2019-05-19T12:20:14.415Z,37.32
2019-05-19T12:22:46.168Z,36.99
2019-05-19T12:25:17.871Z,37.11
2019-05-19T12:27:49.784Z,37.58
2019-05-19T12:30:21.873Z,38.28
2019-05-19T12:32:53.607Z,39.73
2019-05-19T12:35:25.296Z,38.79
2019-05-19T12:37:56.983Z,38.58
2019-05-19T12:40:28.727Z,40.56
2019-05-19T12:43:00.515Z,40.09
2019-05-19T12:45:32.295Z,39.90
2019-05-19T12:48:03.872Z,40.37
2019-05-19T12:50:35.473Z,40.16
2019-05-19T12:53:08.075Z,40.57
2019-05-19T12:55:39.685Z,40.95
2019-05-19T12:58:11.528Z,41.55
2019-05-19T13:00:43.217Z,40.30
2019-05-19T13:03:16.325Z,39.98
2019-05-19T13:05:48.037Z,39.98
2019-05-19T13:08:20.017Z,40.71
2019-05-19T13:10:51.699Z,40.05
2019-05-19T13:13:23.677Z,40.53
2019-05-19T13:15:56.530Z,39.02
2019-05-19T13:18:28.501Z,38.83
2019-05-19T13:21:00.129Z,38.33
2019-05-19T13:23:31.834Z,37.96
2019-05-19T13:26:03.739Z,37.38
2019-05-19T13:28:35.470Z,37.28
2019-05-19T13:31:06.910Z,36.32
2019-05-19T13:33:38.718Z,36.36
2019-05-19T13:36:10.390Z,35.82
2019-05-19T13:38:42.460Z,36.67
2019-05-19T13:41:14.090Z,37.44
2019-05-19T13:43:46.102Z,37.44
2019-05-19T13:46:18.063Z,38.04
2019-05-19T13:48:49.921Z,38.60
2019-05-19T13:51:21.961Z,39.06
2019-05-19T13:53:53.730Z,38.52
2019-05-19T13:56:25.241Z,38.25
2019-05-19T13:58:56.858Z,38.24
2019-05-19T14:01:29.137Z,38.14
2019-05-19T14:04:01.124Z,38.67
2019-05-19T14:06:33.322Z,36.90
2019-05-19T14:09:05.868Z,36.50
2019-05-19T14:11:38.075Z,37.02
2019-05-19T14:14:09.621Z,34.74
2019-05-19T14:16:41.231Z,34.74
2019-05-19T14:19:13.125Z,33.81
2019-05-19T14:21:44.862Z,35.42
2019-05-19T14:24:16.445Z,36.46
2019-05-19T14:26:48.225Z,37.33
2019-05-19T14:29:20.965Z,38.30
2019-05-19T14:31:52.714Z,39.30
2019-05-19T14:34:24.351Z,41.00
2019-05-19T14:36:55.932Z,41.46
2019-05-19T14:39:27.465Z,41.00
2019-05-19T14:42:03.093Z,41.18
2019-05-19T14:44:35.160Z,42.02
2019-05-19T14:47:06.899Z,42.05
2019-05-19T14:49:38.683Z,42.42
2019-05-19T14:52:10.275Z,42.52
2019-05-19T14:54:42.210Z,42.66
2019-05-19T14:57:13.983Z,42.86
2019-05-19T14:59:45.872Z,43.71
2019-05-19T15:02:19.931Z,43.61
2019-05-19T15:04:51.128Z,44.75
2019-05-19T15:07:22.806Z,44.57
2019-05-19T15:09:54.305Z,43.75
2019-05-19T15:12:26.078Z,42.73
2019-05-19T15:14:58.536Z,42.17
2019-05-19T15:17:30.556Z,42.34
2019-05-19T15:20:02.032Z,42.50
2019-05-19T15:22:33.687Z,43.55
2019-05-19T15:25:05.342Z,41.82
2019-05-19T15:27:37.484Z,42.45
2019-05-19T15:30:13.472Z,41.83
2019-05-19T15:32:42.881Z,42.05
2019-05-19T15:35:15.176Z,42.84
2019-05-19T15:37:46.704Z,42.11
2019-05-19T15:40:18.815Z,43.83
2019-05-19T15:42:50.721Z,43.70
2019-05-19T15:45:22.315Z,44.17
2019-05-19T15:47:54.047Z,43.27
2019-05-19T15:50:25.535Z,44.23
2019-05-19T15:52:57.299Z,43.28
2019-05-19T15:55:28.710Z,43.90
2019-05-19T15:58:15.738Z,43.84
2019-05-19T16:00:33.914Z,44.13
2019-05-19T16:03:05.760Z,44.94
2019-05-19T16:05:37.544Z,44.55
2019-05-19T16:08:09.404Z,44.79
2019-05-19T16:10:41.244Z,45.75
2019-05-19T16:13:13.327Z,44.82
2019-05-19T16:15:45.382Z,46.63
2019-05-19T16:18:17.480Z,45.60
2019-05-19T16:20:49.120Z,45.98
2019-05-19T16:23:20.836Z,46.07
2019-05-19T16:25:52.446Z,46.35
2019-05-19T16:28:30.902Z,48.11
2019-05-19T16:30:57.418Z,46.32
2019-05-19T16:33:29.127Z,47.35
2019-05-19T16:36:00.953Z,47.95
2019-05-19T16:38:32.871Z,47.18
2019-05-19T16:41:04.905Z,47.21
2019-05-19T16:43:36.959Z,47.15
2019-05-19T16:46:08.643Z,47.24
2019-05-19T16:48:40.505Z,47.36
2019-05-19T16:51:12.782Z,47.07
2019-05-19T16:53:46.878Z,46.94
2019-05-19T16:59:07.772Z,46.14
2019-05-19T17:01:40.051Z,45.87
2019-05-19T17:04:12.076Z,45.22
2019-05-19T17:06:44.414Z,46.48
2019-05-19T17:09:17.072Z,45.71
2019-05-19T17:11:49.593Z,45.80
2019-05-19T17:14:22.202Z,46.67
2019-05-19T17:16:54.875Z,46.22
2019-05-19T17:19:27.135Z,46.26
2019-05-19T17:21:59.695Z,46.53
2019-05-19T17:24:31.736Z,47.08
2019-05-19T17:27:04.169Z,46.82
2019-05-19T17:29:36.222Z,46.78
2019-05-19T17:32:08.715Z,46.50
2019-05-19T17:34:41.913Z,46.41
2019-05-19T17:37:14.053Z,45.94
2019-05-19T17:39:46.560Z,46.05
2019-05-19T17:42:18.763Z,46.52
2019-05-19T17:44:50.749Z,45.49
2019-05-19T17:47:22.846Z,45.44
2019-05-19T17:49:54.781Z,45.52
2019-05-19T17:52:27.143Z,45.81
2019-05-19T17:54:59.454Z,46.20
2019-05-19T17:57:33.072Z,47.01
2019-05-19T18:00:05.890Z,46.72
2019-05-19T18:02:37.027Z,47.46
2019-05-19T18:05:09.947Z,47.62
2019-05-19T18:07:42.285Z,47.13
2019-05-19T18:10:14.605Z,47.16
2019-05-19T18:12:47.279Z,47.35
2019-05-19T18:15:19.511Z,46.60
2019-05-19T18:17:51.715Z,46.91
2019-05-19T18:20:24.475Z,47.36
2019-05-19T18:22:57.041Z,47.09
2019-05-19T18:25:30.565Z,47.56
2019-05-19T18:28:03.061Z,47.64
2019-05-19T18:30:36.362Z,47.93
2019-05-19T18:33:08.545Z,47.93
2019-05-19T18:35:40.757Z,47.61
2019-05-19T18:38:13.176Z,47.97
2019-05-19T18:40:45.298Z,48.76
2019-05-19T18:43:17.411Z,48.81
2019-05-19T18:45:49.555Z,49.59
2019-05-19T18:48:23.413Z,49.76
2019-05-19T18:50:56.151Z,49.11
2019-05-19T18:53:28.906Z,47.94
2019-05-19T18:56:01.849Z,48.71
2019-05-19T18:58:32.875Z,47.93
2019-05-19T19:01:05.292Z,46.41
2019-05-19T19:03:37.346Z,45.85
2019-05-19T19:06:09.747Z,45.63
2019-05-19T19:08:41.935Z,45.28
2019-05-19T19:11:14.637Z,46.44
2019-05-19T19:13:46.965Z,47.36
2019-05-19T19:16:19.419Z,46.09
2019-05-19T19:18:51.591Z,46.38
2019-05-19T19:21:23.781Z,47.38
2019-05-19T19:23:56.024Z,46.79
2019-05-19T19:26:28.640Z,47.02
2019-05-19T19:29:01.025Z,47.39
2019-05-19T19:31:46.376Z,47.83
2019-05-19T19:34:07.062Z,47.71
2019-05-19T19:49:44.092Z,45.42
2019-05-19T19:52:16.643Z,45.88
2019-05-19T19:54:49.365Z,46.48
2019-05-19T19:57:21.912Z,46.70
2019-05-19T19:59:54.358Z,47.81
2019-05-19T20:02:27.204Z,47.91
2019-05-19T20:04:59.811Z,48.06
2019-05-19T20:07:32.661Z,48.22
2019-05-19T20:10:05.501Z,48.61
2019-05-19T20:12:39.038Z,49.28
2019-05-19T20:15:15.609Z,49.21
2019-05-19T20:17:51.001Z,49.46
2019-05-19T20:20:24.731Z,49.85
2019-05-19T20:22:57.133Z,50.20
2019-05-19T20:25:30.043Z,51.99
2019-05-19T20:28:02.540Z,50.90
2019-05-19T20:30:36.649Z,51.45
2019-05-19T20:33:09.677Z,52.71
2019-05-19T20:35:42.103Z,52.80
2019-05-19T20:38:14.653Z,53.51
2019-05-19T20:40:47.649Z,54.44
2019-05-19T20:43:20.141Z,54.66
2019-05-19T20:45:53.138Z,54.20
2019-05-19T20:48:25.812Z,55.61
2019-05-19T20:50:58.505Z,56.56
2019-05-19T20:53:30.811Z,56.05
2019-05-19T20:56:03.600Z,56.86
2019-05-19T20:58:35.692Z,55.28
2019-05-19T21:01:08.284Z,53.67
2019-05-19T21:03:41.352Z,52.55
2019-05-19T21:06:12.513Z,52.51
2019-05-19T21:08:46.264Z,52.78
2019-05-19T21:11:19.253Z,53.90
2019-05-19T21:13:50.625Z,50.16
2019-05-19T21:16:23.539Z,50.83
2019-05-19T21:19:12.827Z,51.01
2019-05-19T21:21:46.859Z,50.61
2019-05-19T21:24:19.811Z,50.45
2019-05-19T21:26:51.942Z,51.34
2019-05-19T21:29:24.530Z,50.59
2019-05-19T21:31:57.050Z,50.53
2019-05-19T21:34:29.934Z,50.14
2019-05-19T21:37:02.583Z,50.55
2019-05-19T21:39:35.365Z,50.15
2019-05-19T21:42:08.096Z,50.03
2019-05-19T21:44:40.778Z,49.37
2019-05-19T21:47:14.805Z,49.39
2019-05-19T21:49:47.443Z,49.99
2019-05-19T21:52:20.021Z,48.81
2019-05-19T21:54:53.048Z,49.12
2019-05-19T21:57:24.196Z,47.73
2019-05-19T21:59:56.990Z,47.02
2019-05-19T22:02:29.704Z,47.52
2019-05-19T22:05:02.132Z,46.88
2019-05-19T22:07:58.691Z,45.54
2019-05-19T22:10:31.472Z,45.98
2019-05-19T22:13:04.037Z,46.18
2019-05-19T22:15:37.591Z,47.08
2019-05-19T22:18:10.334Z,47.33
2019-05-19T22:20:43.050Z,47.03
2019-05-19T22:23:15.566Z,46.79
2019-05-19T22:25:48.527Z,47.01
2019-05-19T22:28:21.028Z,46.69
2019-05-19T22:30:53.563Z,45.93
2019-05-19T22:33:26.324Z,46.20
2019-05-19T22:35:58.934Z,46.74
2019-05-19T22:38:31.441Z,46.52
2019-05-19T22:41:05.013Z,46.53
2019-05-19T22:43:37.966Z,46.28
2019-05-19T22:46:10.630Z,46.52
2019-05-19T22:48:43.443Z,46.66
2019-05-19T22:51:16.071Z,46.62
2019-05-19T22:53:49.103Z,45.87
2019-05-19T22:56:23.036Z,45.28
2019-05-19T22:58:55.573Z,45.68
2019-05-19T23:01:28.523Z,45.32
2019-05-19T23:04:01.100Z,46.15
2019-05-19T23:06:33.971Z,46.11
2019-05-19T23:09:07.724Z,46.35
2019-05-19T23:11:40.151Z,46.06
2019-05-19T23:14:12.234Z,47.35
2019-05-19T23:16:44.689Z,47.53
2019-05-19T23:19:17.252Z,48.04
2019-05-19T23:21:49.963Z,47.27
2019-05-19T23:24:22.477Z,47.93
2019-05-19T23:26:55.276Z,48.99
2019-05-19T23:29:28.159Z,48.39
2019-05-19T23:32:07.209Z,48.03
2019-05-19T23:34:35.326Z,47.80
2019-05-19T23:37:07.793Z,48.36
2019-05-19T23:39:40.382Z,48.81
2019-05-19T23:42:12.306Z,49.39
2019-05-19T23:44:44.822Z,49.34
2019-05-19T23:47:17.636Z,50.36
2019-05-19T23:49:50.439Z,49.54
2019-05-19T23:52:22.731Z,49.91
2019-05-19T23:54:55.626Z,50.42
2019-05-19T23:57:28.235Z,50.79
